Time;durP1;ratioP1;P1;durP2;ratioP2;P2;SDS_P1;SDS_P2;PMS_P1;PMS_P2;Temp;Humidity;BMP_temperature;BMP_pressure;BME280_temperature;BME280_humidity;BME280_pressure;Samples;Min_cycle;Max_cycle;Signal;HPM_P1;HPM_P2
2022/04/03 00:02:03;;;;;;;5.80;3.13;;;7.00;88.40;;;;;;5047991;28;20213;-69
2022/04/03 00:04:30;;;;;;;8.17;2.83;;;7.00;88.40;;;;;;5046784;28;20209;-69
2022/04/03 00:06:59;;;;;;;6.27;2.60;;;7.00;88.40;;;;;;5047048;28;20284;-69
2022/04/03 00:09:26;;;;;;;10.93;3.33;;;7.00;88.30;;;;;;5062943;28;20362;-69
2022/04/03 00:11:53;;;;;;;6.70;3.47;;;7.10;88.30;;;;;;5046029;28;20545;-69
2022/04/03 00:14:20;;;;;;;5.23;3.03;;;7.10;88.50;;;;;;5047487;28;20293;-69
2022/04/03 00:16:49;;;;;;;7.43;3.13;;;7.20;88.60;;;;;;5048256;28;20212;-69
2022/04/03 00:19:16;;;;;;;5.83;3.17;;;7.20;88.60;;;;;;5045942;28;20267;-69
2022/04/03 00:21:44;;;;;;;7.43;3.73;;;7.20;88.60;;;;;;5046772;28;20213;-69
2022/04/03 00:24:11;;;;;;;5.53;2.97;;;7.30;88.70;;;;;;5047527;28;20203;-69
2022/04/03 00:26:39;;;;;;;5.23;3.03;;;7.30;88.70;;;;;;5061777;28;20265;-69
2022/04/03 00:29:06;;;;;;;6.33;3.10;;;7.30;88.60;;;;;;5052903;28;20291;-69
2022/04/03 00:31:34;;;;;;;5.10;3.30;;;7.30;88.60;;;;;;5062364;28;20595;-69
2022/04/03 00:34:01;;;;;;;6.87;3.30;;;7.40;88.50;;;;;;5046874;28;20263;-69
2022/04/03 00:36:28;;;;;;;8.30;4.37;;;7.40;88.30;;;;;;5045279;28;20595;-69
2022/04/03 00:38:55;;;;;;;5.83;3.40;;;7.50;88.00;;;;;;5047411;28;20285;-69
2022/04/03 00:41:22;;;;;;;6.67;3.20;;;7.50;87.80;;;;;;5048016;28;20650;-69
2022/04/03 00:43:49;;;;;;;8.47;3.60;;;7.60;87.80;;;;;;5050181;28;20543;-69
2022/04/03 00:46:21;;;;;;;7.47;3.60;;;7.60;87.50;;;;;;5050964;28;20572;-69
2022/04/03 00:48:49;;;;;;;8.30;3.57;;;7.60;87.10;;;;;;5048661;28;20969;-69
2022/04/03 00:51:17;;;;;;;8.50;4.20;;;7.60;86.90;;;;;;5051308;28;20692;-69
2022/04/03 00:53:45;;;;;;;5.60;3.53;;;7.60;87.00;;;;;;5050330;28;20416;-69
2022/04/03 00:56:12;;;;;;;9.17;3.43;;;7.60;87.00;;;;;;5049832;28;20197;-69
2022/04/03 00:58:40;;;;;;;9.57;3.40;;;7.60;87.00;;;;;;5049903;28;20245;-69
2022/04/03 01:01:08;;;;;;;5.17;3.63;;;7.60;87.20;;;;;;5048964;28;22033;-69
2022/04/03 01:03:35;;;;;;;4.87;3.30;;;7.70;87.30;;;;;;5050548;28;20231;-69
2022/04/03 01:06:03;;;;;;;7.20;3.60;;;7.70;87.30;;;;;;5048203;28;20228;-69
2022/04/03 01:08:31;;;;;;;7.77;4.20;;;7.70;87.50;;;;;;5048779;28;20696;-69
2022/04/03 01:10:59;;;;;;;4.90;3.53;;;7.70;87.60;;;;;;5050209;28;20339;-69
2022/04/03 01:13:26;;;;;;;5.60;3.50;;;7.70;87.60;;;;;;5048536;28;20213;-69
2022/04/03 01:15:59;;;;;;;4.33;3.23;;;7.70;87.40;;;;;;5050210;28;20197;-69
2022/04/03 01:18:27;;;;;;;5.97;3.67;;;7.70;87.30;;;;;;5050324;28;20259;-69
2022/04/03 01:20:55;;;;;;;4.30;3.60;;;7.70;87.10;;;;;;5049199;28;20701;-69
2022/04/03 01:23:23;;;;;;;4.20;2.83;;;7.70;87.00;;;;;;5049028;28;20213;-69
2022/04/03 01:25:50;;;;;;;6.73;3.37;;;7.70;86.70;;;;;;5048729;28;20209;-69
2022/04/03 01:28:17;;;;;;;3.70;3.10;;;7.60;86.80;;;;;;5049784;28;20542;-69
2022/04/03 01:30:44;;;;;;;7.20;4.67;;;7.60;87.10;;;;;;5049274;28;20228;-69
2022/04/03 01:33:11;;;;;;;5.57;4.47;;;7.60;87.60;;;;;;5049213;28;20191;-69
2022/04/03 01:35:39;;;;;;;6.27;4.57;;;7.60;88.00;;;;;;5051370;28;20512;-69
2022/04/03 01:38:06;;;;;;;6.00;4.10;;;7.60;88.40;;;;;;5050229;28;20205;-69
2022/04/03 01:40:37;;;;;;;5.27;3.97;;;7.60;88.70;;;;;;5048233;28;20940;-69
2022/04/03 01:43:09;;;;;;;4.73;3.87;;;7.60;88.90;;;;;;5054807;28;20541;-69
2022/04/03 01:45:40;;;;;;;6.17;3.90;;;7.60;89.00;;;;;;5065084;28;20202;-69
2022/04/03 01:48:08;;;;;;;5.00;3.90;;;7.60;89.10;;;;;;5048105;28;20284;-69
2022/04/03 01:50:35;;;;;;;8.37;4.03;;;7.60;89.00;;;;;;5064766;28;20342;-69
2022/04/03 01:53:03;;;;;;;6.87;4.07;;;7.60;88.70;;;;;;5049146;28;20283;-69
2022/04/03 01:55:31;;;;;;;6.77;4.00;;;7.60;88.50;;;;;;5048741;28;20280;-69
2022/04/03 01:57:58;;;;;;;4.07;3.60;;;7.60;88.70;;;;;;5049386;28;20230;-69
2022/04/03 02:00:26;;;;;;;9.40;4.20;;;7.60;89.00;;;;;;5048695;28;20206;-69
2022/04/03 02:02:53;;;;;;;8.43;4.53;;;7.70;89.40;;;;;;5049025;28;20232;-69
2022/04/03 02:05:21;;;;;;;7.87;5.13;;;7.60;89.60;;;;;;5049540;28;20198;-69
2022/04/03 02:07:49;;;;;;;7.20;4.37;;;7.70;89.90;;;;;;5050272;28;20210;-69
2022/04/03 02:10:16;;;;;;;10.70;5.23;;;7.70;89.90;;;;;;5048174;28;20237;-69
2022/04/03 02:12:43;;;;;;;5.93;4.63;;;7.70;90.00;;;;;;5049239;28;20212;-69
2022/04/03 02:15:11;;;;;;;6.53;4.00;;;7.70;90.00;;;;;;5047784;28;20234;-69
2022/04/03 02:17:40;;;;;;;7.17;4.87;;;7.70;90.00;;;;;;5048310;28;20288;-69
2022/04/03 02:20:09;;;;;;;10.10;5.13;;;7.70;90.00;;;;;;5063447;28;20230;-69
2022/04/03 02:22:37;;;;;;;8.67;5.40;;;7.70;90.00;;;;;;5048248;28;20215;-69
2022/04/03 02:25:09;;;;;;;5.17;4.47;;;7.70;90.00;;;;;;5048607;28;20220;-69
2022/04/03 02:27:37;;;;;;;5.90;5.23;;;7.70;89.80;;;;;;5047159;28;20205;-69
2022/04/03 02:30:11;;;;;;;6.83;5.03;;;7.80;90.10;;;;;;5047724;28;20220;-69
2022/04/03 02:32:39;;;;;;;8.83;5.10;;;7.80;90.10;;;;;;5047492;28;20219;-69
2022/04/03 02:35:09;;;;;;;7.13;5.10;;;7.80;90.00;;;;;;5048659;28;20206;-69
2022/04/03 02:37:38;;;;;;;6.80;4.97;;;7.80;89.80;;;;;;5046788;28;20656;-69
2022/04/03 02:40:09;;;;;;;7.43;5.20;;;7.80;89.60;;;;;;5047212;28;20280;-69
2022/04/03 02:42:36;;;;;;;11.93;5.30;;;7.80;89.50;;;;;;5049129;28;20296;-69
2022/04/03 02:45:05;;;;;;;12.43;5.57;;;7.80;89.70;;;;;;5063641;28;20213;-69
2022/04/03 02:47:33;;;;;;;7.17;5.60;;;7.70;89.70;;;;;;5049367;28;20599;-69
2022/04/03 02:50:00;;;;;;;8.53;6.13;;;7.80;90.00;;;;;;5047998;28;20217;-69
2022/04/03 02:52:27;;;;;;;7.07;5.70;;;7.80;90.00;;;;;;5048275;28;20205;-69
2022/04/03 02:54:55;;;;;;;9.20;6.10;;;7.80;90.10;;;;;;5046064;28;20213;-69
2022/04/03 02:57:23;;;;;;;12.03;6.30;;;7.80;90.20;;;;;;5063888;28;20263;-69
2022/04/03 02:59:50;;;;;;;8.90;5.90;;;7.90;90.30;;;;;;5048200;28;20281;-69
2022/04/03 03:02:17;;;;;;;5.83;5.20;;;7.90;90.70;;;;;;5047759;28;20585;-69
2022/04/03 03:04:44;;;;;;;6.73;5.60;;;7.90;90.40;;;;;;5064684;28;20210;-69
2022/04/03 03:07:12;;;;;;;9.10;5.73;;;7.90;90.50;;;;;;5047387;28;20277;-69
2022/04/03 03:09:39;;;;;;;8.17;5.00;;;7.90;90.50;;;;;;5048076;28;20245;-69
2022/04/03 03:12:07;;;;;;;6.13;4.70;;;7.90;90.50;;;;;;5047765;28;20235;-69
2022/04/03 03:14:34;;;;;;;9.70;5.00;;;8.00;90.50;;;;;;5047378;28;21636;-69
2022/04/03 03:17:02;;;;;;;6.87;5.00;;;8.00;90.60;;;;;;5047769;28;20203;-69
2022/04/03 03:19:29;;;;;;;9.37;5.03;;;8.00;90.60;;;;;;5046171;28;20213;-69
2022/04/03 03:21:56;;;;;;;6.17;4.77;;;8.10;90.60;;;;;;5046669;28;20207;-69
2022/04/03 03:24:23;;;;;;;8.17;4.40;;;8.10;90.70;;;;;;5047927;28;20212;-69
2022/04/03 03:26:51;;;;;;;5.83;3.93;;;8.10;90.70;;;;;;5048418;28;20198;-69
2022/04/03 03:29:18;;;;;;;8.53;4.27;;;8.10;90.70;;;;;;5048455;28;20210;-69
2022/04/03 03:31:45;;;;;;;7.87;3.73;;;8.10;90.70;;;;;;5046925;28;20208;-69
2022/04/03 03:34:12;;;;;;;4.17;3.20;;;8.20;90.90;;;;;;5048002;28;20618;-69
2022/04/03 03:36:39;;;;;;;6.33;3.00;;;8.20;90.90;;;;;;5047672;28;20198;-69
2022/04/03 03:39:06;;;;;;;5.43;2.90;;;8.20;90.90;;;;;;5047091;28;20213;-69
2022/04/03 03:41:33;;;;;;;5.80;3.00;;;8.20;90.90;;;;;;5047232;28;20221;-69
2022/04/03 03:44:06;;;;;;;5.60;3.30;;;8.20;90.90;;;;;;5063061;28;20590;-69
2022/04/03 03:46:34;;;;;;;6.30;4.47;;;8.20;90.80;;;;;;5048042;28;20225;-69
2022/04/03 03:49:01;;;;;;;7.43;5.00;;;8.20;90.70;;;;;;5047605;28;20287;-69
2022/04/03 03:51:28;;;;;;;9.37;5.50;;;8.20;90.70;;;;;;5046680;28;20952;-69
2022/04/03 03:53:55;;;;;;;7.87;5.57;;;8.20;90.80;;;;;;5047540;28;20194;-69
2022/04/03 03:56:22;;;;;;;5.67;4.97;;;8.20;90.90;;;;;;5046968;28;20275;-69
2022/04/03 03:58:51;;;;;;;8.40;5.47;;;8.20;90.90;;;;;;5046760;28;20202;-69
2022/04/03 04:01:19;;;;;;;7.47;5.27;;;8.20;90.90;;;;;;5053095;28;20212;-69
2022/04/03 04:03:46;;;;;;;10.03;4.83;;;8.20;90.90;;;;;;5047463;28;20557;-69
2022/04/03 04:06:14;;;;;;;4.17;3.77;;;8.20;90.90;;;;;;5047753;28;20204;-69
2022/04/03 04:08:41;;;;;;;4.47;3.83;;;8.10;90.70;;;;;;5046744;28;20207;-69
2022/04/03 04:11:09;;;;;;;4.03;3.63;;;8.00;90.60;;;;;;5062762;28;20312;-69
2022/04/03 04:13:36;;;;;;;4.57;2.80;;;7.90;90.80;;;;;;5045920;28;20549;-69
2022/04/03 04:16:05;;;;;;;6.00;3.03;;;7.90;91.20;;;;;;5046695;28;20578;-69
2022/04/03 04:18:32;;;;;;;6.10;3.67;;;7.80;91.30;;;;;;5050003;28;20195;-69
2022/04/03 04:21:02;;;;;;;7.17;3.13;;;7.80;91.50;;;;;;5051810;28;20254;-69
2022/04/03 04:23:29;;;;;;;5.20;3.13;;;7.80;91.60;;;;;;5066598;28;20233;-69
2022/04/03 04:25:56;;;;;;;6.33;3.00;;;7.80;91.60;;;;;;5067123;28;20290;-69
2022/04/03 04:28:23;;;;;;;3.20;2.60;;;7.80;91.70;;;;;;5050200;28;20209;-69
2022/04/03 04:30:50;;;;;;;6.20;2.80;;;7.80;91.80;;;;;;5050194;28;20230;-69
2022/04/03 04:33:17;;;;;;;4.80;2.53;;;7.80;91.90;;;;;;5050195;28;20281;-69
2022/04/03 04:35:44;;;;;;;4.80;2.20;;;7.80;92.00;;;;;;5053834;28;20251;-69
2022/04/03 04:38:11;;;;;;;5.10;2.10;;;7.80;92.20;;;;;;5050449;28;20209;-69
2022/04/03 04:40:38;;;;;;;4.20;1.60;;;7.80;92.20;;;;;;5051056;28;20645;-69
2022/04/03 04:43:05;;;;;;;1.50;1.40;;;7.80;92.20;;;;;;5049601;28;20691;-69
2022/04/03 04:45:32;;;;;;;4.93;1.67;;;7.80;91.90;;;;;;5049718;28;20311;-69
2022/04/03 04:47:59;;;;;;;5.97;1.70;;;7.80;91.90;;;;;;5066783;28;20661;-69
2022/04/03 04:50:28;;;;;;;3.17;1.70;;;7.70;91.90;;;;;;5066040;28;20197;-69
2022/04/03 04:52:56;;;;;;;1.60;1.50;;;7.60;92.00;;;;;;5050944;28;20202;-69
2022/04/03 04:55:25;;;;;;;3.97;2.00;;;7.60;92.20;;;;;;5049855;28;20234;-69
2022/04/03 04:57:58;;;;;;;4.17;1.33;;;7.60;92.30;;;;;;5048051;28;20206;-69
2022/04/03 05:00:27;;;;;;;4.73;1.60;;;7.60;92.40;;;;;;5050301;28;20204;-69
2022/04/03 05:02:55;;;;;;;1.63;1.40;;;7.50;92.40;;;;;;5049453;28;21123;-69
2022/04/03 05:05:23;;;;;;;3.13;1.53;;;7.50;92.40;;;;;;5050186;28;20241;-69
2022/04/03 05:07:53;;;;;;;3.70;2.33;;;7.50;92.50;;;;;;5049814;28;20198;-69
2022/04/03 05:10:21;;;;;;;2.53;1.30;;;7.50;92.50;;;;;;5050796;28;20282;-69
2022/04/03 05:12:48;;;;;;;2.47;1.17;;;7.50;92.50;;;;;;5049161;28;20638;-69
2022/04/03 05:15:17;;;;;;;6.07;1.63;;;7.60;92.50;;;;;;5050699;28;20223;-69
2022/04/03 05:17:45;;;;;;;2.73;1.20;;;7.60;92.80;;;;;;5049733;28;20198;-69
2022/04/03 05:20:14;;;;;;;4.07;1.43;;;7.60;92.60;;;;;;5049737;28;20313;-69
2022/04/03 05:22:42;;;;;;;3.73;1.37;;;7.60;92.70;;;;;;5049512;28;20339;-69
2022/04/03 05:25:11;;;;;;;1.67;1.47;;;7.70;92.70;;;;;;5049949;28;20206;-69
2022/04/03 05:27:43;;;;;;;1.90;1.20;;;7.70;92.70;;;;;;5049492;28;20683;-69
2022/04/03 05:30:12;;;;;;;6.67;1.53;;;7.70;92.80;;;;;;5048848;28;20204;-69
2022/04/03 05:32:39;;;;;;;2.57;1.43;;;7.70;92.90;;;;;;5063730;28;20226;-69
2022/04/03 05:35:08;;;;;;;1.70;1.30;;;7.80;93.00;;;;;;5048434;28;20202;-69
2022/04/03 05:37:42;;;;;;;2.80;1.50;;;7.80;93.00;;;;;;5050104;28;20226;-69
2022/04/03 05:40:11;;;;;;;2.97;1.57;;;7.80;93.10;;;;;;5049667;28;20226;-69
2022/04/03 05:42:39;;;;;;;4.80;1.63;;;7.90;93.10;;;;;;5049150;28;20206;-69
2022/04/03 05:45:08;;;;;;;2.63;1.40;;;7.90;93.10;;;;;;5048462;28;20240;-69
2022/04/03 05:47:35;;;;;;;3.17;1.83;;;7.90;93.10;;;;;;5048756;28;20242;-69
2022/04/03 05:50:09;;;;;;;6.57;1.50;;;7.90;93.10;;;;;;5046927;28;20640;-69
2022/04/03 05:52:40;;;;;;;3.73;1.50;;;8.00;92.90;;;;;;5048532;28;20635;-69
2022/04/03 05:55:08;;;;;;;1.00;0.90;;;8.00;92.80;;;;;;5047411;28;20263;-69
2022/04/03 05:57:37;;;;;;;4.80;1.20;;;8.00;92.90;;;;;;5064821;28;20240;-69
2022/04/03 06:00:06;;;;;;;4.60;1.33;;;8.00;92.90;;;;;;5048508;28;20198;-69
2022/04/03 06:02:59;;;;;;;4.80;1.70;;;8.10;92.90;;;;;;5048972;28;20219;-69
2022/04/03 06:05:29;;;;;;;2.13;1.50;;;8.10;92.80;;;;;;5049343;28;20210;-69
2022/04/03 06:08:03;;;;;;;2.47;1.53;;;8.10;92.50;;;;;;5033988;28;20264;-70
2022/04/03 06:10:31;;;;;;;4.77;1.53;;;8.10;92.20;;;;;;5048691;28;20249;-70
2022/04/03 06:13:01;;;;;;;5.00;2.03;;;8.10;92.10;;;;;;5047818;28;20235;-70
2022/04/03 06:15:33;;;;;;;3.07;1.70;;;8.10;92.10;;;;;;5030539;28;20293;-70
2022/04/03 06:18:05;;;;;;;2.50;2.10;;;8.10;92.10;;;;;;5049570;28;20222;-69
2022/04/03 06:20:33;;;;;;;4.30;2.70;;;8.10;92.30;;;;;;5050007;28;20221;-70
2022/04/03 06:23:09;;;;;;;4.17;2.30;;;8.20;92.40;;;;;;5064722;28;20206;-70
2022/04/03 06:25:41;;;;;;;4.40;2.17;;;8.30;92.50;;;;;;5064721;28;20205;-68
2022/04/03 06:28:08;;;;;;;4.93;2.60;;;8.30;92.50;;;;;;5048108;28;20241;-68
2022/04/03 06:30:36;;;;;;;3.40;2.43;;;8.40;92.50;;;;;;5049823;28;20681;-68
2022/04/03 06:33:04;;;;;;;3.23;2.23;;;8.40;92.50;;;;;;5048420;28;20227;-68
2022/04/03 06:35:31;;;;;;;4.60;3.10;;;8.50;92.40;;;;;;5047270;28;20230;-69
2022/04/03 06:37:58;;;;;;;6.57;2.87;;;8.50;92.40;;;;;;5045644;28;20814;-68
2022/04/03 06:40:25;;;;;;;6.07;3.17;;;8.60;92.20;;;;;;5048636;28;20517;-68
2022/04/03 06:42:53;;;;;;;8.03;3.60;;;8.60;92.00;;;;;;5047703;28;20221;-68
2022/04/03 06:45:21;;;;;;;4.97;3.50;;;8.70;92.00;;;;;;5048628;28;20210;-69
2022/04/03 06:47:48;;;;;;;5.97;3.60;;;8.80;92.00;;;;;;5046954;28;20293;-69
2022/04/03 06:50:15;;;;;;;5.07;3.50;;;8.90;92.20;;;;;;5047464;28;21202;-69
2022/04/03 06:52:42;;;;;;;4.90;3.50;;;9.10;92.20;;;;;;5047685;28;20224;-69
2022/04/03 06:55:10;;;;;;;4.93;3.70;;;9.30;92.00;;;;;;5046897;28;20215;-69
2022/04/03 06:57:37;;;;;;;7.30;4.17;;;9.50;91.70;;;;;;5030364;28;20194;-69
2022/04/03 07:00:08;;;;;;;6.13;3.80;;;9.60;91.40;;;;;;5047874;28;20199;-69
2022/04/03 07:02:35;;;;;;;6.50;3.70;;;9.70;90.60;;;;;;5047634;28;20278;-69
2022/04/03 07:05:04;;;;;;;3.87;3.37;;;9.70;89.50;;;;;;5046944;28;20234;-69
2022/04/03 07:07:32;;;;;;;7.07;4.20;;;9.80;88.90;;;;;;5046873;28;20211;-70
2022/04/03 07:09:59;;;;;;;4.73;3.73;;;9.80;88.80;;;;;;5047065;28;20274;-70
2022/04/03 07:12:26;;;;;;;6.53;3.37;;;9.80;88.70;;;;;;5063373;28;20227;-70
2022/04/03 07:14:56;;;;;;;4.20;3.63;;;9.80;88.40;;;;;;5047339;28;20277;-70
2022/04/03 07:17:23;;;;;;;7.07;4.10;;;9.80;88.50;;;;;;5046938;28;20197;-70
2022/04/03 07:19:50;;;;;;;7.07;4.10;;;9.90;88.50;;;;;;5046887;28;20287;-70
2022/04/03 07:22:17;;;;;;;6.37;3.07;;;10.00;89.10;;;;;;5045586;28;20198;-70
2022/04/03 07:24:44;;;;;;;9.17;4.27;;;10.20;89.10;;;;;;5047351;28;20565;-70
2022/04/03 07:27:12;;;;;;;5.97;4.13;;;10.40;86.80;;;;;;5047594;28;20214;-70
2022/04/03 07:29:39;;;;;;;5.67;3.53;;;10.40;86.70;;;;;;5047452;28;20250;-70
2022/04/03 07:32:06;;;;;;;3.80;3.27;;;10.50;86.10;;;;;;5047249;28;20234;-69
2022/04/03 07:34:34;;;;;;;5.70;3.63;;;10.50;84.80;;;;;;5046162;28;20203;-69
2022/04/03 07:37:01;;;;;;;5.33;3.17;;;10.50;85.60;;;;;;5062541;28;20206;-69
2022/04/03 07:39:28;;;;;;;4.67;3.70;;;10.60;86.00;;;;;;5048100;28;20207;-69
2022/04/03 07:41:55;;;;;;;5.03;4.13;;;10.90;86.30;;;;;;5047836;28;20203;-70
2022/04/03 07:44:22;;;;;;;7.07;4.30;;;11.10;85.90;;;;;;5047197;28;20205;-70
2022/04/03 07:46:50;;;;;;;5.50;4.17;;;11.20;84.80;;;;;;5047589;28;20208;-70
2022/04/03 07:49:17;;;;;;;6.37;4.83;;;11.30;83.80;;;;;;5063899;28;20304;-70
2022/04/03 07:51:44;;;;;;;8.17;4.33;;;11.40;83.50;;;;;;5048976;28;20301;-70
2022/04/03 07:54:11;;;;;;;5.43;4.47;;;11.60;83.60;;;;;;5051640;28;20295;-70
2022/04/03 07:56:38;;;;;;;9.07;4.30;;;11.90;82.80;;;;;;5051828;28;20208;-70
2022/04/03 07:59:06;;;;;;;8.17;4.43;;;12.20;82.00;;;;;;5051193;28;20208;-70
2022/04/03 08:01:34;;;;;;;7.60;4.83;;;12.40;75.80;;;;;;5050092;28;21116;-70
2022/04/03 08:04:02;;;;;;;11.90;4.90;;;12.50;74.30;;;;;;5065759;28;21756;-70
2022/04/03 08:06:29;;;;;;;6.20;4.47;;;12.70;75.10;;;;;;5051177;28;21064;-70
2022/04/03 08:08:56;;;;;;;8.03;4.27;;;12.90;75.70;;;;;;5051520;28;20216;-70
2022/04/03 08:11:23;;;;;;;8.50;4.33;;;13.10;74.30;;;;;;5051468;28;20220;-70
2022/04/03 08:13:51;;;;;;;4.50;3.70;;;13.30;71.90;;;;;;5052029;28;20278;-70
2022/04/03 08:16:18;;;;;;;5.87;4.37;;;13.30;71.40;;;;;;5050856;28;20201;-70
2022/04/03 08:18:45;;;;;;;8.10;4.23;;;13.30;70.90;;;;;;5050557;28;20211;-70
2022/04/03 08:21:12;;;;;;;4.63;3.73;;;13.20;70.80;;;;;;5051008;28;20218;-70
2022/04/03 08:23:40;;;;;;;6.03;3.90;;;13.20;71.30;;;;;;5054456;28;20291;-70
2022/04/03 08:26:07;;;;;;;5.80;4.17;;;13.10;72.10;;;;;;5050445;28;20661;-70
2022/04/03 08:28:34;;;;;;;8.17;4.20;;;13.20;72.80;;;;;;5051515;28;22036;-70
2022/04/03 08:31:02;;;;;;;5.33;3.60;;;13.20;73.00;;;;;;5051365;28;20215;-70
2022/04/03 08:33:32;;;;;;;7.03;3.90;;;13.20;73.00;;;;;;5049835;28;20231;-70
2022/04/03 08:35:59;;;;;;;5.33;4.20;;;13.20;72.00;;;;;;5051018;28;20593;-70
2022/04/03 08:38:27;;;;;;;5.37;3.40;;;13.30;72.10;;;;;;5050085;28;20199;-70
2022/04/03 08:40:54;;;;;;;7.17;4.00;;;13.40;71.10;;;;;;5034698;28;20210;-70
2022/04/03 08:43:22;;;;;;;6.57;3.83;;;13.40;70.20;;;;;;5050680;28;20292;-70
2022/04/03 08:45:51;;;;;;;5.60;2.90;;;13.40;69.80;;;;;;5050151;28;20217;-70
2022/04/03 08:48:19;;;;;;;10.20;3.90;;;13.40;68.40;;;;;;5049920;28;20196;-70
2022/04/03 08:50:50;;;;;;;4.70;4.10;;;13.30;67.60;;;;;;5049924;28;20222;-70
2022/04/03 08:53:21;;;;;;;5.60;3.40;;;13.30;67.00;;;;;;5049427;28;21142;-70
2022/04/03 08:55:49;;;;;;;5.13;3.63;;;13.20;67.10;;;;;;5047720;28;20203;-70
2022/04/03 08:58:17;;;;;;;5.13;3.67;;;13.30;67.30;;;;;;5048642;28;20907;-70
2022/04/03 09:00:45;;;;;;;7.00;3.70;;;13.40;67.20;;;;;;5050847;28;20274;-70
2022/04/03 09:03:13;;;;;;;6.17;3.40;;;13.60;66.90;;;;;;5050258;28;20638;-70
2022/04/03 09:05:43;;;;;;;4.90;3.37;;;13.70;65.40;;;;;;5049128;28;20821;-70
2022/04/03 09:08:11;;;;;;;5.57;3.70;;;13.80;63.50;;;;;;5050282;28;20229;-70
2022/04/03 09:10:41;;;;;;;5.17;2.90;;;13.70;63.10;;;;;;5048964;28;20322;-69
2022/04/03 09:13:09;;;;;;;5.00;3.43;;;13.60;64.10;;;;;;5049776;28;20230;-69
2022/04/03 09:15:37;;;;;;;5.20;3.30;;;13.70;65.20;;;;;;5049770;28;20263;-69
2022/04/03 09:18:06;;;;;;;6.93;3.70;;;13.90;66.00;;;;;;5064524;28;20202;-69
2022/04/03 09:20:37;;;;;;;3.47;2.77;;;14.20;67.70;;;;;;5066161;28;20565;-69
2022/04/03 09:23:07;;;;;;;4.90;3.33;;;14.50;65.60;;;;;;5065186;28;20273;-69
2022/04/03 09:25:40;;;;;;;5.97;3.13;;;14.80;63.80;;;;;;5050444;28;20285;-69
2022/04/03 09:28:12;;;;;;;6.50;2.83;;;15.00;64.60;;;;;;5065013;28;21723;-69
2022/04/03 09:30:43;;;;;;;3.37;2.40;;;15.30;65.30;;;;;;5049268;28;20259;-69
2022/04/03 09:33:12;;;;;;;3.13;2.17;;;15.70;65.40;;;;;;5049211;28;20270;-69
2022/04/03 09:35:58;;;;;;;4.73;2.03;;;16.00;63.80;;;;;;5048954;28;20198;-69
2022/04/03 09:38:27;;;;;;;3.63;2.47;;;16.10;59.30;;;;;;5065293;28;20612;-69
2022/04/03 09:40:55;;;;;;;3.93;1.87;;;16.00;58.90;;;;;;5049194;28;20202;-69
2022/04/03 09:43:35;;;;;;;2.93;1.80;;;15.80;59.00;;;;;;5049593;28;20296;-69
2022/04/03 09:46:04;;;;;;;3.13;2.37;;;15.70;59.00;;;;;;5049136;28;20238;-69
2022/04/03 09:48:34;;;;;;;2.53;2.00;;;15.80;60.70;;;;;;5049126;28;20691;-69
2022/04/03 09:51:03;;;;;;;3.37;2.30;;;15.90;60.30;;;;;;5046816;28;20206;-69
2022/04/03 09:53:42;;;;;;;3.03;2.43;;;16.10;59.70;;;;;;5048414;28;20237;-69
2022/04/03 09:56:11;;;;;;;3.20;2.07;;;16.20;59.10;;;;;;5049133;28;20213;-69
2022/04/03 09:59:03;;;;;;;2.93;2.03;;;16.40;58.60;;;;;;5047386;28;20211;-69
2022/04/03 10:01:40;;;;;;;3.57;2.13;;;16.50;54.80;;;;;;5047726;28;20574;-69
2022/04/03 10:04:15;;;;;;;3.80;2.00;;;16.40;55.90;;;;;;5048694;28;20638;-69
2022/04/03 10:06:43;;;;;;;3.03;2.07;;;16.20;55.00;;;;;;5047490;28;20650;-69
2022/04/03 10:09:15;;;;;;;4.40;2.27;;;16.10;56.30;;;;;;5048691;28;20249;-69
2022/04/03 10:11:43;;;;;;;3.30;2.40;;;16.00;56.90;;;;;;5048224;28;20198;-69
2022/04/03 10:14:11;;;;;;;4.83;2.27;;;15.90;57.10;;;;;;5049097;28;20297;-69
2022/04/03 10:16:39;;;;;;;4.40;2.00;;;15.90;58.10;;;;;;5064383;28;20200;-69
2022/04/03 10:19:07;;;;;;;3.67;1.60;;;16.10;57.40;;;;;;5049712;28;20197;-69
2022/04/03 10:21:45;;;;;;;2.80;1.77;;;16.20;57.00;;;;;;5047412;28;20294;-70
2022/04/03 10:24:34;;;;;;;3.27;1.77;;;16.20;51.40;;;;;;5048502;28;20225;-69
2022/04/03 10:27:10;;;;;;;6.47;2.20;;;16.10;53.90;;;;;;5048964;28;21103;-69
2022/04/03 10:29:39;;;;;;;3.97;2.30;;;16.20;55.60;;;;;;5063670;28;20208;-69
2022/04/03 10:32:08;;;;;;;2.07;1.70;;;16.40;56.00;;;;;;5049543;28;20308;-69
2022/04/03 10:34:47;;;;;;;3.23;2.10;;;16.30;53.90;;;;;;5047134;28;20620;-69
2022/04/03 10:37:29;;;;;;;3.97;2.53;;;16.30;52.60;;;;;;5063794;28;20549;-70
2022/04/03 10:40:07;;;;;;;4.53;2.27;;;16.50;53.50;;;;;;5048988;28;20202;-69
2022/04/03 10:42:47;;;;;;;4.80;2.40;;;16.60;54.20;;;;;;5047782;28;20285;-69
2022/04/03 10:45:14;;;;;;;2.93;2.23;;;16.90;54.20;;;;;;5049237;28;20202;-69
2022/04/03 10:47:43;;;;;;;2.83;1.83;;;17.00;53.60;;;;;;5047934;28;20261;-69
2022/04/03 10:50:21;;;;;;;4.87;2.43;;;17.00;54.40;;;;;;5047463;28;20206;-69
2022/04/03 10:52:52;;;;;;;3.73;2.17;;;16.80;54.80;;;;;;5048631;28;20296;-69
2022/04/03 10:55:21;;;;;;;2.50;2.20;;;16.60;54.60;;;;;;5047540;28;20200;-69
2022/04/03 10:57:51;;;;;;;2.97;1.87;;;16.40;55.30;;;;;;5047534;28;20682;-69
2022/04/03 11:00:18;;;;;;;2.87;2.03;;;16.20;55.70;;;;;;5048541;28;20266;-69
2022/04/03 11:02:52;;;;;;;2.23;2.00;;;16.00;55.70;;;;;;5048741;28;20564;-69
2022/04/03 11:05:23;;;;;;;2.43;1.80;;;15.80;56.80;;;;;;5047227;28;20215;-69
2022/04/03 11:07:51;;;;;;;2.70;2.03;;;15.70;56.40;;;;;;5047028;28;20285;-69
2022/04/03 11:10:45;;;;;;;2.60;1.67;;;15.60;56.10;;;;;;5048172;28;20248;-69
2022/04/03 11:13:16;;;;;;;3.00;1.97;;;15.60;56.30;;;;;;5046815;28;20233;-69
2022/04/03 11:15:49;;;;;;;1.63;1.53;;;15.70;54.90;;;;;;5047862;28;20214;-69
2022/04/03 11:18:48;;;;;;;4.00;1.60;;;16.00;55.70;;;;;;5047280;28;20220;-69
2022/04/03 11:21:20;;;;;;;2.87;1.90;;;16.10;51.60;;;;;;5044249;28;20304;-69
2022/04/03 11:23:58;;;;;;;2.73;2.00;;;16.00;53.80;;;;;;5047441;28;20686;-69
2022/04/03 11:26:25;;;;;;;2.97;2.17;;;15.80;54.60;;;;;;5046699;28;20547;-68
2022/04/03 11:28:56;;;;;;;3.40;2.20;;;15.60;55.80;;;;;;5047284;28;20237;-68
2022/04/03 11:31:25;;;;;;;3.37;1.93;;;15.20;57.90;;;;;;5061362;28;20218;-69
2022/04/03 11:33:53;;;;;;;4.60;1.90;;;14.80;58.30;;;;;;5048121;28;20227;-68
2022/04/03 11:36:25;;;;;;;3.70;2.40;;;14.40;59.60;;;;;;5046813;28;20205;-68
2022/04/03 11:38:53;;;;;;;2.37;2.17;;;14.00;59.70;;;;;;5046317;28;20301;-68
2022/04/03 11:41:31;;;;;;;4.23;2.37;;;13.70;60.30;;;;;;5046927;28;20246;-68
2022/04/03 11:44:06;;;;;;;3.73;2.00;;;13.50;62.30;;;;;;5046116;28;20213;-68
2022/04/03 11:46:44;;;;;;;3.27;1.73;;;13.20;62.50;;;;;;5048038;28;20215;-68
2022/04/03 11:49:17;;;;;;;1.70;1.47;;;13.00;62.00;;;;;;5048265;28;20227;-68
2022/04/03 11:51:46;;;;;;;2.30;2.10;;;12.80;61.80;;;;;;5046106;28;20209;-68
2022/04/03 11:54:16;;;;;;;3.97;2.00;;;12.50;63.90;;;;;;5047192;28;20849;-68
2022/04/03 11:56:43;;;;;;;2.27;1.77;;;12.30;65.00;;;;;;5047526;28;20227;-68
2022/04/03 11:59:13;;;;;;;5.33;2.60;;;12.20;66.10;;;;;;5046993;28;20284;-68
2022/04/03 12:01:51;;;;;;;2.67;2.30;;;12.10;66.60;;;;;;5047077;28;20515;-68
2022/04/03 12:04:19;;;;;;;3.00;2.23;;;12.00;67.10;;;;;;5047292;28;20298;-68
2022/04/03 12:06:49;;;;;;;2.73;2.07;;;11.90;67.90;;;;;;5047822;28;20208;-68
2022/04/03 12:09:23;;;;;;;5.80;2.53;;;11.80;68.10;;;;;;5047272;28;20349;-68
2022/04/03 12:11:53;;;;;;;3.30;2.60;;;11.80;67.90;;;;;;5043748;28;20209;-68
2022/04/03 12:14:31;;;;;;;2.90;2.23;;;11.70;68.70;;;;;;5046150;28;20242;-68
2022/04/03 12:17:11;;;;;;;5.40;2.57;;;11.70;68.50;;;;;;5046691;28;20263;-68
2022/04/03 12:19:50;;;;;;;3.30;2.03;;;11.70;69.50;;;;;;5046387;28;20212;-68
2022/04/03 12:22:20;;;;;;;2.53;1.80;;;11.70;69.20;;;;;;5046079;28;20265;-68
2022/04/03 12:24:53;;;;;;;3.83;2.67;;;11.70;68.00;;;;;;5046459;28;20235;-68
2022/04/03 12:27:31;;;;;;;3.43;2.10;;;11.80;69.40;;;;;;5046518;28;20199;-68
2022/04/03 12:29:59;;;;;;;5.50;2.50;;;11.90;68.10;;;;;;5045838;28;20525;-68
2022/04/03 12:32:35;;;;;;;2.10;1.90;;;12.00;68.10;;;;;;5045322;28;20228;-68
2022/04/03 12:35:05;;;;;;;4.70;2.50;;;12.10;68.40;;;;;;5046243;28;20612;-68
2022/04/03 12:37:37;;;;;;;2.40;2.20;;;12.20;67.30;;;;;;5047714;28;21069;-68
2022/04/03 12:40:07;;;;;;;3.63;2.20;;;12.20;66.30;;;;;;5050591;28;20192;-68
2022/04/03 12:42:35;;;;;;;3.47;2.50;;;12.30;67.00;;;;;;5050719;28;20657;-68
2022/04/03 12:45:22;;;;;;;4.10;2.57;;;12.30;66.50;;;;;;5049687;28;20220;-67
2022/04/03 12:48:00;;;;;;;2.90;2.60;;;12.30;68.40;;;;;;5049345;28;20212;-67
2022/04/03 12:50:31;;;;;;;3.03;2.73;;;12.50;67.40;;;;;;5049180;28;20226;-67
2022/04/03 12:53:02;;;;;;;3.70;2.30;;;12.50;66.80;;;;;;5049889;28;20307;-67
2022/04/03 12:56:02;;;;;;;3.13;2.57;;;12.60;65.40;;;;;;5050201;28;20195;-68
2022/04/03 12:58:40;;;;;;;4.53;2.70;;;12.60;66.70;;;;;;5048206;28;21229;-67
2022/04/03 13:01:14;;;;;;;4.97;2.50;;;12.70;64.80;;;;;;5050440;28;20208;-67
2022/04/03 13:03:50;;;;;;;3.13;2.43;;;12.70;65.50;;;;;;5049704;28;20876;-67
2022/04/03 13:06:28;;;;;;;2.33;1.90;;;12.80;67.10;;;;;;5049275;28;20216;-67